sensor_id;sensor_type;location;lat;lon;timestamp;pressure;altitude;pressure_sealevel;temperature;humidity
44044;BME280;29709;52.396;16.796;2022-10-04T00:01:26;101852.89;;;12.00;79.18
44044;BME280;29709;52.396;16.796;2022-10-04T00:04:40;101851.44;;;11.96;79.65
44044;BME280;29709;52.396;16.796;2022-10-04T00:07:48;101844.91;;;11.97;79.14
44044;BME280;29709;52.396;16.796;2022-10-04T00:11:02;101847.97;;;11.94;79.19
44044;BME280;29709;52.396;16.796;2022-10-04T00:14:13;101848.28;;;11.91;79.64
44044;BME280;29709;52.396;16.796;2022-10-04T00:17:22;101850.89;;;11.92;79.26
44044;BME280;29709;52.396;16.796;2022-10-04T00:23:44;101852.77;;;11.92;79.33
44044;BME280;29709;52.396;16.796;2022-10-04T00:27:20;101863.24;;;11.88;79.21
44044;BME280;29709;52.396;16.796;2022-10-04T00:30:23;101861.63;;;11.85;79.47
44044;BME280;29709;52.396;16.796;2022-10-04T00:36:52;101861.63;;;11.85;79.00
44044;BME280;29709;52.396;16.796;2022-10-04T00:39:59;101857.30;;;11.83;79.62
44044;BME280;29709;52.396;16.796;2022-10-04T00:43:07;101860.77;;;11.85;79.58
44044;BME280;29709;52.396;16.796;2022-10-04T00:46:19;101854.84;;;11.80;79.47
44044;BME280;29709;52.396;16.796;2022-10-04T00:49:30;101868.46;;;11.72;79.61
44044;BME280;29709;52.396;16.796;2022-10-04T00:52:42;101857.16;;;11.65;79.94
44044;BME280;29709;52.396;16.796;2022-10-04T00:55:51;101856.02;;;11.68;79.74
44044;BME280;29709;52.396;16.796;2022-10-04T00:59:07;101851.82;;;11.64;79.74
44044;BME280;29709;52.396;16.796;2022-10-04T01:02:22;101849.93;;;11.64;79.91
44044;BME280;29709;52.396;16.796;2022-10-04T01:05:38;101850.09;;;11.63;80.10
44044;BME280;29709;52.396;16.796;2022-10-04T01:08:52;101851.26;;;11.60;80.18
44044;BME280;29709;52.396;16.796;2022-10-04T01:12:02;101851.41;;;11.59;79.76
44044;BME280;29709;52.396;16.796;2022-10-04T01:18:28;101842.88;;;11.52;80.27
44044;BME280;29709;52.396;16.796;2022-10-04T01:21:36;101846.93;;;11.58;79.96
44044;BME280;29709;52.396;16.796;2022-10-04T01:24:41;101856.17;;;11.56;80.00
44044;BME280;29709;52.396;16.796;2022-10-04T01:27:45;101848.23;;;11.53;80.25
44044;BME280;29709;52.396;16.796;2022-10-04T01:31:13;101859.54;;;11.50;80.54
44044;BME280;29709;52.396;16.796;2022-10-04T01:34:20;101860.41;;;11.51;80.85
44044;BME280;29709;52.396;16.796;2022-10-04T01:37:25;101865.61;;;11.54;80.39
44044;BME280;29709;52.396;16.796;2022-10-04T01:40:29;101860.97;;;11.54;80.53
44044;BME280;29709;52.396;16.796;2022-10-04T01:43:37;101858.52;;;11.51;80.41
44044;BME280;29709;52.396;16.796;2022-10-04T01:46:41;101859.70;;;11.49;80.41
44044;BME280;29709;52.396;16.796;2022-10-04T01:49:45;101864.33;;;11.48;80.47
44044;BME280;29709;52.396;16.796;2022-10-04T01:52:53;101875.34;;;11.48;80.85
44044;BME280;29709;52.396;16.796;2022-10-04T01:56:31;101873.89;;;11.44;80.97
44044;BME280;29709;52.396;16.796;2022-10-04T01:59:43;101865.36;;;11.47;81.23
44044;BME280;29709;52.396;16.796;2022-10-04T02:02:57;101871.73;;;11.48;81.14
44044;BME280;29709;52.396;16.796;2022-10-04T02:06:04;101870.98;;;11.46;80.62
44044;BME280;29709;52.396;16.796;2022-10-04T02:12:22;101867.09;;;11.48;80.96
44044;BME280;29709;52.396;16.796;2022-10-04T02:15:51;101873.46;;;11.49;81.50
44044;BME280;29709;52.396;16.796;2022-10-04T02:18:54;101863.87;;;11.53;80.99
44044;BME280;29709;52.396;16.796;2022-10-04T02:22:01;101866.63;;;11.53;81.08
44044;BME280;29709;52.396;16.796;2022-10-04T02:25:06;101869.23;;;11.54;80.67
44044;BME280;29709;52.396;16.796;2022-10-04T02:28:11;101865.92;;;11.51;81.20
44044;BME280;29709;52.396;16.796;2022-10-04T02:31:21;101876.21;;;11.49;81.07
44044;BME280;29709;52.396;16.796;2022-10-04T02:34:37;101874.76;;;11.45;81.63
44044;BME280;29709;52.396;16.796;2022-10-04T02:37:42;101872.30;;;11.42;80.85
44044;BME280;29709;52.396;16.796;2022-10-04T02:41:20;101873.18;;;11.33;81.57
44044;BME280;29709;52.396;16.796;2022-10-04T02:44:34;101872.05;;;11.25;81.68
44044;BME280;29709;52.396;16.796;2022-10-04T02:57:32;101881.18;;;11.26;82.28
44044;BME280;29709;52.396;16.796;2022-10-04T03:03:50;101880.16;;;11.27;81.39
44044;BME280;29709;52.396;16.796;2022-10-04T03:07:20;101888.27;;;11.19;81.59
44044;BME280;29709;52.396;16.796;2022-10-04T03:10:24;101884.80;;;11.17;81.61
44044;BME280;29709;52.396;16.796;2022-10-04T03:13:27;101886.81;;;11.15;81.56
44044;BME280;29709;52.396;16.796;2022-10-04T03:16:36;101880.03;;;11.09;82.09
44044;BME280;29709;52.396;16.796;2022-10-04T03:19:40;101879.45;;;11.06;81.83
44044;BME280;29709;52.396;16.796;2022-10-04T03:22:44;101885.08;;;11.04;81.85
44044;BME280;29709;52.396;16.796;2022-10-04T03:25:51;101881.46;;;11.04;82.31
44044;BME280;29709;52.396;16.796;2022-10-04T03:28:56;101876.26;;;11.01;82.37
44044;BME280;29709;52.396;16.796;2022-10-04T03:32:25;101885.11;;;10.94;82.72
44044;BME280;29709;52.396;16.796;2022-10-04T03:35:37;101879.72;;;10.93;83.19
44044;BME280;29709;52.396;16.796;2022-10-04T03:38:43;101880.73;;;10.92;82.95
44044;BME280;29709;52.396;16.796;2022-10-04T03:41:47;101873.65;;;10.89;83.02
44044;BME280;29709;52.396;16.796;2022-10-04T03:44:54;101877.41;;;10.88;82.95
44044;BME280;29709;52.396;16.796;2022-10-04T03:48:03;101877.41;;;10.88;83.21
44044;BME280;29709;52.396;16.796;2022-10-04T03:51:13;101883.78;;;10.89;83.00
44044;BME280;29709;52.396;16.796;2022-10-04T03:54:22;101880.73;;;10.92;83.81
44044;BME280;29709;52.396;16.796;2022-10-04T03:57:29;101877.56;;;10.96;83.67
44044;BME280;29709;52.396;16.796;2022-10-04T04:01:22;101885.38;;;11.01;83.76
44044;BME280;29709;52.396;16.796;2022-10-04T04:04:28;101878.70;;;11.04;84.42
44044;BME280;29709;52.396;16.796;2022-10-04T04:07:43;101877.42;;;11.08;85.08
44044;BME280;29709;52.396;16.796;2022-10-04T04:10:54;101880.44;;;11.14;84.47
44044;BME280;29709;52.396;16.796;2022-10-04T04:14:06;101888.27;;;11.19;84.70
44044;BME280;29709;52.396;16.796;2022-10-04T04:20:32;101900.14;;;11.29;84.59
44044;BME280;29709;52.396;16.796;2022-10-04T04:23:42;101898.67;;;11.35;84.71
44044;BME280;29709;52.396;16.796;2022-10-04T04:26:50;101899.41;;;11.37;85.24
44044;BME280;29709;52.396;16.796;2022-10-04T04:29:59;101902.43;;;11.43;84.65
44044;BME280;29709;52.396;16.796;2022-10-04T04:33:08;101907.52;;;11.48;84.73
44044;BME280;29709;52.396;16.796;2022-10-04T04:36:15;101911.84;;;11.50;85.27
44044;BME280;29709;52.396;16.796;2022-10-04T04:39:43;101919.38;;;11.58;84.96
44044;BME280;29709;52.396;16.796;2022-10-04T04:42:56;101920.24;;;11.59;85.10
44044;BME280;29709;52.396;16.796;2022-10-04T04:46:01;101913.57;;;11.61;84.68
44044;BME280;29709;52.396;16.796;2022-10-04T04:49:04;101921.52;;;11.64;84.81
44044;BME280;29709;52.396;16.796;2022-10-04T04:52:14;101927.03;;;11.64;84.62
44044;BME280;29709;52.396;16.796;2022-10-04T04:55:22;101923.26;;;11.65;84.97
44044;BME280;29709;52.396;16.796;2022-10-04T04:58:35;101933.13;;;11.68;84.78
44044;BME280;29709;52.396;16.796;2022-10-04T05:01:45;101935.27;;;11.74;84.75
44044;BME280;29709;52.396;16.796;2022-10-04T05:04:48;101934.98;;;11.77;84.68
44044;BME280;29709;52.396;16.796;2022-10-04T05:08:21;101936.73;;;11.78;84.78
44044;BME280;29709;52.396;16.796;2022-10-04T05:11:29;101941.82;;;11.82;84.14
44044;BME280;29709;52.396;16.796;2022-10-04T05:14:39;101946.00;;;11.87;84.21
44044;BME280;29709;52.396;16.796;2022-10-04T05:17:43;101941.23;;;11.89;83.90
44044;BME280;29709;52.396;16.796;2022-10-04T05:20:50;101952.35;;;11.97;84.11
44044;BME280;29709;52.396;16.796;2022-10-04T05:24:06;101949.32;;;12.00;83.67
44044;BME280;29709;52.396;16.796;2022-10-04T05:33:45;101962.33;;;12.07;83.10
44044;BME280;29709;52.396;16.796;2022-10-04T05:37:00;101973.81;;;12.03;83.25
44044;BME280;29709;52.396;16.796;2022-10-04T05:43:28;101966.41;;;12.03;83.46
44044;BME280;29709;52.396;16.796;2022-10-04T05:46:34;101983.08;;;12.11;83.31
44044;BME280;29709;52.396;16.796;2022-10-04T05:50:03;101973.63;;;12.14;83.23
44044;BME280;29709;52.396;16.796;2022-10-04T06:06:15;101989.63;;;12.38;82.68
44044;BME280;29709;52.396;16.796;2022-10-04T06:16:02;102002.27;;;12.40;82.40
44044;BME280;29709;52.396;16.796;2022-10-04T06:22:20;102013.66;;;12.55;82.18
44044;BME280;29709;52.396;16.796;2022-10-04T06:25:32;102011.46;;;12.59;82.15
44044;BME280;29709;52.396;16.796;2022-10-04T06:28:43;102009.53;;;12.69;81.63
44044;BME280;29709;52.396;16.796;2022-10-04T06:45:06;102035.22;;;12.69;82.06
44044;BME280;29709;52.396;16.796;2022-10-04T06:51:35;102039.52;;;12.82;81.69
44044;BME280;29709;52.396;16.796;2022-10-04T07:04:34;102043.63;;;13.05;81.59
44044;BME280;29709;52.396;16.796;2022-10-04T07:07:43;102037.31;;;13.13;81.33
44044;BME280;29709;52.396;16.796;2022-10-04T07:10:53;102043.12;;;13.19;80.87
44044;BME280;29709;52.396;16.796;2022-10-04T07:14:08;102040.45;;;13.27;80.65
44044;BME280;29709;52.396;16.796;2022-10-04T07:17:21;102041.71;;;13.33;80.15
44044;BME280;29709;52.396;16.796;2022-10-04T07:20:29;102049.70;;;13.36;80.42
44044;BME280;29709;52.396;16.796;2022-10-04T07:26:49;102044.17;;;13.54;79.73
44044;BME280;29709;52.396;16.796;2022-10-04T07:30:19;102053.89;;;13.58;79.08
44044;BME280;29709;52.396;16.796;2022-10-04T07:33:25;102048.59;;;13.65;78.61
44044;BME280;29709;52.396;16.796;2022-10-04T07:43:05;102051.08;;;14.11;77.46
44044;BME280;29709;52.396;16.796;2022-10-04T07:46:34;102059.05;;;14.14;77.05
44044;BME280;29709;52.396;16.796;2022-10-04T07:49:26;102060.34;;;14.02;76.73
44044;BME280;29709;52.396;16.796;2022-10-04T07:56:16;102066.56;;;14.04;77.12
44044;BME280;29709;52.396;16.796;2022-10-04T08:09:21;102068.80;;;14.01;76.09
44044;BME280;29709;52.396;16.796;2022-10-04T08:15:41;102084.02;;;14.05;76.33
44044;BME280;29709;52.396;16.796;2022-10-04T08:19:00;102095.68;;;14.16;76.27
44044;BME280;29709;52.396;16.796;2022-10-04T08:22:04;102087.70;;;14.31;74.61
44044;BME280;29709;52.396;16.796;2022-10-04T08:35:22;102094.05;;;15.01;71.93
44044;BME280;29709;52.396;16.796;2022-10-04T08:38:40;102097.81;;;15.00;72.15
44044;BME280;29709;52.396;16.796;2022-10-04T09:27:30;102138.52;;;15.50;68.84
44044;BME280;29709;52.396;16.796;2022-10-04T09:30:45;102139.91;;;15.46;68.19
44044;BME280;29709;52.396;16.796;2022-10-04T09:37:10;102137.48;;;15.43;66.80
44044;BME280;29709;52.396;16.796;2022-10-04T09:43:43;102137.38;;;15.61;67.28
44044;BME280;29709;52.396;16.796;2022-10-04T09:46:54;102143.41;;;15.56;67.41
44044;BME280;29709;52.396;16.796;2022-10-04T10:03:23;102152.52;;;15.75;63.61
44044;BME280;29709;52.396;16.796;2022-10-04T10:09:55;102151.13;;;15.79;64.46
44044;BME280;29709;52.396;16.796;2022-10-04T10:36:15;102168.80;;;15.78;62.60
44044;BME280;29709;52.396;16.796;2022-10-04T10:52:34;102170.18;;;15.40;62.84
44044;BME280;29709;52.396;16.796;2022-10-04T10:55:57;102180.65;;;15.54;63.50
44044;BME280;29709;52.396;16.796;2022-10-04T11:05:33;102174.76;;;16.24;62.98
44044;BME280;29709;52.396;16.796;2022-10-04T11:21:58;102176.16;;;16.60;60.16
44044;BME280;29709;52.396;16.796;2022-10-04T11:45:02;102181.48;;;17.58;58.13
44044;BME280;29709;52.396;16.796;2022-10-04T11:48:16;102174.38;;;17.55;55.91
44044;BME280;29709;52.396;16.796;2022-10-04T12:07:58;102165.23;;;18.09;54.95
44044;BME280;29709;52.396;16.796;2022-10-04T12:21:07;102160.33;;;18.34;52.31
44044;BME280;29709;52.396;16.796;2022-10-04T12:24:35;102159.04;;;18.22;52.60
44044;BME280;29709;52.396;16.796;2022-10-04T12:30:55;102157.80;;;18.01;53.61
44044;BME280;29709;52.396;16.796;2022-10-04T12:34:15;102151.51;;;18.07;53.54
44044;BME280;29709;52.396;16.796;2022-10-04T12:40:39;102150.64;;;18.07;52.98
44044;BME280;29709;52.396;16.796;2022-10-04T12:53:45;102157.55;;;18.57;53.12
44044;BME280;29709;52.396;16.796;2022-10-04T13:00:15;102165.84;;;18.42;50.57
44044;BME280;29709;52.396;16.796;2022-10-04T13:03:27;102159.65;;;18.32;50.02
44044;BME280;29709;52.396;16.796;2022-10-04T13:29:32;102176.00;;;17.81;51.75
44044;BME280;29709;52.396;16.796;2022-10-04T13:32:48;102166.31;;;17.69;52.56
44044;BME280;29709;52.396;16.796;2022-10-04T13:36:07;102180.62;;;17.57;51.31
44044;BME280;29709;52.396;16.796;2022-10-04T13:42:39;102175.63;;;17.45;53.22
44044;BME280;29709;52.396;16.796;2022-10-04T13:49:12;102185.60;;;17.31;54.26
44044;BME280;29709;52.396;16.796;2022-10-04T13:55:53;102177.30;;;17.15;53.99
44044;BME280;29709;52.396;16.796;2022-10-04T14:25:27;102176.69;;;17.44;53.36
44044;BME280;29709;52.396;16.796;2022-10-04T14:38:31;102174.65;;;17.29;52.07
44044;BME280;29709;52.396;16.796;2022-10-04T14:58:01;102182.37;;;17.11;54.64
44044;BME280;29709;52.396;16.796;2022-10-04T15:07:43;102177.32;;;17.07;55.48
44044;BME280;29709;52.396;16.796;2022-10-04T15:10:54;102179.05;;;17.08;55.35
44044;BME280;29709;52.396;16.796;2022-10-04T15:14:03;102176.98;;;17.10;55.19
44044;BME280;29709;52.396;16.796;2022-10-04T15:23:42;102181.88;;;16.99;54.70
44044;BME280;29709;52.396;16.796;2022-10-04T15:30:16;102194.04;;;16.82;55.82
44044;BME280;29709;52.396;16.796;2022-10-04T15:33:27;102189.90;;;16.70;55.79
44044;BME280;29709;52.396;16.796;2022-10-04T15:39:56;102194.41;;;16.71;56.68
44044;BME280;29709;52.396;16.796;2022-10-04T16:05:57;102196.95;;;16.24;58.38
44044;BME280;29709;52.396;16.796;2022-10-04T16:09:15;102195.05;;;16.16;59.29
44044;BME280;29709;52.396;16.796;2022-10-04T16:15:39;102189.81;;;15.97;59.86
44044;BME280;29709;52.396;16.796;2022-10-04T16:31:52;102191.25;;;15.24;62.01
44044;BME280;29709;52.396;16.796;2022-10-04T16:38:23;102203.42;;;15.06;61.95
44044;BME280;29709;52.396;16.796;2022-10-04T16:44:51;102198.20;;;14.77;63.24
44044;BME280;29709;52.396;16.796;2022-10-04T16:47:59;102199.26;;;14.58;64.45
44044;BME280;29709;52.396;16.796;2022-10-04T16:57:33;102210.24;;;14.14;66.52
44044;BME280;29709;52.396;16.796;2022-10-04T17:17:22;102232.55;;;13.30;67.70
44044;BME280;29709;52.396;16.796;2022-10-04T17:20:43;102241.70;;;13.31;69.83
44044;BME280;29709;52.396;16.796;2022-10-04T17:23:58;102233.73;;;13.27;69.06
44044;BME280;29709;52.396;16.796;2022-10-04T17:30:24;102228.92;;;13.29;68.77
44044;BME280;29709;52.396;16.796;2022-10-04T17:36:54;102229.11;;;13.09;69.40
44044;BME280;29709;52.396;16.796;2022-10-04T17:53:18;102242.25;;;12.78;69.53
44044;BME280;29709;52.396;16.796;2022-10-04T17:56:44;102245.16;;;12.57;71.44
44044;BME280;29709;52.396;16.796;2022-10-04T18:03:16;102241.09;;;12.61;70.93
44044;BME280;29709;52.396;16.796;2022-10-04T18:16:16;102243.88;;;12.32;72.15
44044;BME280;29709;52.396;16.796;2022-10-04T18:23:13;102247.78;;;12.10;73.80
44044;BME280;29709;52.396;16.796;2022-10-04T18:26:15;102250.55;;;12.10;74.19
44044;BME280;29709;52.396;16.796;2022-10-04T18:32:37;102255.31;;;12.18;72.88
44044;BME280;29709;52.396;16.796;2022-10-04T18:36:13;102262.29;;;12.12;73.56
44044;BME280;29709;52.396;16.796;2022-10-04T18:39:20;102262.70;;;12.07;74.41
44044;BME280;29709;52.396;16.796;2022-10-04T18:42:33;102259.22;;;12.05;74.86
44044;BME280;29709;52.396;16.796;2022-10-04T18:45:38;102259.51;;;12.02;73.45
44044;BME280;29709;52.396;16.796;2022-10-04T18:48:53;102258.77;;;11.91;75.15
44044;BME280;29709;52.396;16.796;2022-10-04T18:58:36;102270.26;;;12.15;73.22
44044;BME280;29709;52.396;16.796;2022-10-04T19:02:04;102279.12;;;12.09;74.44
44044;BME280;29709;52.396;16.796;2022-10-04T19:05:16;102282.28;;;12.04;73.96
44044;BME280;29709;52.396;16.796;2022-10-04T19:08:37;102287.21;;;12.01;74.82
44044;BME280;29709;52.396;16.796;2022-10-04T19:15:02;102286.49;;;11.99;74.67
44044;BME280;29709;52.396;16.796;2022-10-04T19:31:22;102273.70;;;11.88;73.80
44044;BME280;29709;52.396;16.796;2022-10-04T19:37:59;102264.69;;;11.86;74.80
44044;BME280;29709;52.396;16.796;2022-10-04T19:47:40;102274.68;;;11.87;72.71
44044;BME280;29709;52.396;16.796;2022-10-04T19:57:11;102272.59;;;11.70;74.28
44044;BME280;29709;52.396;16.796;2022-10-04T20:00:16;102276.62;;;11.66;73.66
44044;BME280;29709;52.396;16.796;2022-10-04T20:03:23;102274.44;;;11.60;73.77
44044;BME280;29709;52.396;16.796;2022-10-04T20:06:57;102276.13;;;11.51;73.54
44044;BME280;29709;52.396;16.796;2022-10-04T20:13:22;102279.53;;;11.34;74.50
44044;BME280;29709;52.396;16.796;2022-10-04T20:19:42;102280.40;;;11.34;74.18
44044;BME280;29709;52.396;16.796;2022-10-04T20:23:46;102286.91;;;11.33;74.34
44044;BME280;29709;52.396;16.796;2022-10-04T20:26:36;102286.77;;;11.35;74.14
44044;BME280;29709;52.396;16.796;2022-10-04T20:29:57;102285.74;;;11.26;73.71
44044;BME280;29709;52.396;16.796;2022-10-04T20:33:12;102291.35;;;11.24;73.51
44044;BME280;29709;52.396;16.796;2022-10-04T20:46:13;102312.80;;;11.00;74.29
44044;BME280;29709;52.396;16.796;2022-10-04T20:49:25;102319.30;;;10.99;74.76
44044;BME280;29709;52.396;16.796;2022-10-04T20:52:56;102317.63;;;10.87;74.47
44044;BME280;29709;52.396;16.796;2022-10-04T20:56:07;102326.02;;;10.85;74.72
44044;BME280;29709;52.396;16.796;2022-10-04T20:59:15;102328.91;;;10.84;74.30
44044;BME280;29709;52.396;16.796;2022-10-04T21:02:25;102324.52;;;10.81;74.19
44044;BME280;29709;52.396;16.796;2022-10-04T21:05:31;102323.32;;;10.74;74.23
44044;BME280;29709;52.396;16.796;2022-10-04T21:08:38;102325.72;;;10.67;74.69
44044;BME280;29709;52.396;16.796;2022-10-04T21:11:51;102322.38;;;10.64;74.99
44044;BME280;29709;52.396;16.796;2022-10-04T21:15:11;102325.23;;;10.62;74.81
44044;BME280;29709;52.396;16.796;2022-10-04T21:18:18;102317.12;;;10.61;75.88
44044;BME280;29709;52.396;16.796;2022-10-04T21:24:52;102318.12;;;10.60;74.18
44044;BME280;29709;52.396;16.796;2022-10-04T21:31:13;102326.55;;;10.47;75.02
44044;BME280;29709;52.396;16.796;2022-10-04T21:34:41;102328.06;;;10.40;75.58
44044;BME280;29709;52.396;16.796;2022-10-04T21:37:45;102323.57;;;10.39;74.84
44044;BME280;29709;52.396;16.796;2022-10-04T21:40:48;102318.48;;;10.34;74.88
44044;BME280;29709;52.396;16.796;2022-10-04T21:43:51;102321.22;;;10.34;75.77
44044;BME280;29709;52.396;16.796;2022-10-04T21:46:55;102322.70;;;10.38;75.61
44044;BME280;29709;52.396;16.796;2022-10-04T21:52:27;102312.45;;;10.40;75.21
44044;BME280;29709;52.396;16.796;2022-10-04T21:55:31;102312.45;;;10.40;74.92
44044;BME280;29709;52.396;16.796;2022-10-04T21:58:35;102310.23;;;10.34;74.37
44044;BME280;29709;52.396;16.796;2022-10-04T22:01:38;102301.76;;;10.26;74.37
44044;BME280;29709;52.396;16.796;2022-10-04T22:04:40;102302.23;;;10.20;74.54
44044;BME280;29709;52.396;16.796;2022-10-04T22:07:43;102308.87;;;10.18;75.09
44044;BME280;29709;52.396;16.796;2022-10-04T22:10:46;102291.78;;;10.14;74.72
44044;BME280;29709;52.396;16.796;2022-10-04T22:13:50;102293.79;;;10.12;76.31
44044;BME280;29709;52.396;16.796;2022-10-04T22:16:54;102299.88;;;10.16;76.06
44044;BME280;29709;52.396;16.796;2022-10-04T22:19:57;102296.86;;;10.19;75.74
44044;BME280;29709;52.396;16.796;2022-10-04T22:23:36;102298.74;;;10.18;75.32
44044;BME280;29709;52.396;16.796;2022-10-04T22:26:40;102296.00;;;10.18;75.72
44044;BME280;29709;52.396;16.796;2022-10-04T22:29:43;102307.86;;;10.19;75.43
44044;BME280;29709;52.396;16.796;2022-10-04T22:32:47;102301.63;;;10.17;75.57
44044;BME280;29709;52.396;16.796;2022-10-04T22:35:50;102293.39;;;10.17;75.49
44044;BME280;29709;52.396;16.796;2022-10-04T22:39:01;102273.55;;;10.13;76.25
44044;BME280;29709;52.396;16.796;2022-10-04T22:42:10;102272.55;;;10.14;76.89
44044;BME280;29709;52.396;16.796;2022-10-04T22:45:42;102262.43;;;10.15;76.88
44044;BME280;29709;52.396;16.796;2022-10-04T22:48:48;102258.81;;;10.14;76.73
44044;BME280;29709;52.396;16.796;2022-10-04T22:51:59;102267.65;;;10.18;78.04
44044;BME280;29709;52.396;16.796;2022-10-04T22:55:16;102270.13;;;10.21;77.63
44044;BME280;29709;52.396;16.796;2022-10-04T22:58:15;102261.82;;;10.22;78.63
44044;BME280;29709;52.396;16.796;2022-10-04T23:01:25;102251.44;;;10.26;77.36
44044;BME280;29709;52.396;16.796;2022-10-04T23:04:30;102243.92;;;10.28;76.46
44044;BME280;29709;52.396;16.796;2022-10-04T23:07:38;102245.94;;;10.26;78.80
44044;BME280;29709;52.396;16.796;2022-10-04T23:11:08;102238.30;;;10.29;78.46
44044;BME280;29709;52.396;16.796;2022-10-04T23:14:11;102229.80;;;10.32;78.57
44044;BME280;29709;52.396;16.796;2022-10-04T23:17:22;102225.91;;;10.35;77.39
44044;BME280;29709;52.396;16.796;2022-10-04T23:20:27;102225.64;;;10.38;78.76
44044;BME280;29709;52.396;16.796;2022-10-04T23:23:30;102212.50;;;10.41;78.17
44044;BME280;29709;52.396;16.796;2022-10-04T23:26:37;102224.11;;;10.45;78.08
44044;BME280;29709;52.396;16.796;2022-10-04T23:29:41;102219.80;;;10.52;79.82
44044;BME280;29709;52.396;16.796;2022-10-04T23:32:46;102206.82;;;10.54;79.74
44044;BME280;29709;52.396;16.796;2022-10-04T23:35:52;102213.80;;;10.58;79.12
44044;BME280;29709;52.396;16.796;2022-10-04T23:39:25;102210.02;;;10.59;79.45
44044;BME280;29709;52.396;16.796;2022-10-04T23:42:32;102213.51;;;10.61;79.14
44044;BME280;29709;52.396;16.796;2022-10-04T23:45:35;102205.26;;;10.61;77.88
44044;BME280;29709;52.396;16.796;2022-10-04T23:48:46;102210.76;;;10.61;78.59
44044;BME280;29709;52.396;16.796;2022-10-04T23:51:55;102207.27;;;10.59;78.26
44044;BME280;29709;52.396;16.796;2022-10-04T23:55:02;102202.51;;;10.61;76.80
44044;BME280;29709;52.396;16.796;2022-10-04T23:58:18;102194.27;;;10.61;78.39
